createdAt,value
2023-02-26T00:00:26.498Z,86.97
2023-02-26T00:02:54.630Z,87.38
2023-02-26T00:05:22.514Z,86.75
2023-02-26T00:07:50.368Z,87.17
2023-02-26T00:10:18.568Z,86.85
2023-02-26T00:12:48.617Z,86.99
2023-02-26T00:15:18.399Z,86.97
2023-02-26T00:17:54.733Z,87.20
2023-02-26T00:20:23.922Z,87.28
2023-02-26T00:22:52.325Z,87.02
2023-02-26T00:25:20.312Z,87.36
2023-02-26T00:27:50.239Z,87.25
2023-02-26T00:30:18.920Z,87.50
2023-02-26T00:32:47.770Z,87.49
2023-02-26T00:35:17.279Z,87.60
2023-02-26T00:37:59.268Z,87.76
2023-02-26T00:40:36.332Z,87.38
2023-02-26T00:43:07.569Z,87.70
2023-02-26T00:45:36.566Z,87.77
2023-02-26T00:48:39.480Z,87.81
2023-02-26T00:51:16.391Z,87.84
2023-02-26T00:53:51.168Z,88.18
2023-02-26T00:56:19.181Z,88.46
2023-02-26T00:58:48.439Z,88.04
2023-02-26T01:01:16.521Z,88.33
2023-02-26T01:03:44.787Z,88.13
2023-02-26T01:06:16.511Z,88.52
2023-02-26T01:08:52.408Z,88.18
2023-02-26T01:11:20.708Z,88.31
2023-02-26T01:13:50.624Z,88.08
2023-02-26T01:16:23.530Z,88.19
2023-02-26T01:18:57.307Z,87.91
2023-02-26T01:21:32.410Z,88.15
2023-02-26T01:24:03.169Z,88.63
2023-02-26T01:26:31.313Z,88.29
2023-02-26T01:29:01.195Z,88.50
2023-02-26T01:31:39.636Z,88.25
2023-02-26T01:34:12.960Z,88.44
2023-02-26T01:36:47.355Z,88.55
2023-02-26T01:39:20.916Z,88.82
2023-02-26T01:41:52.210Z,88.46
2023-02-26T01:44:27.683Z,88.83
2023-02-26T01:47:10.508Z,88.73
2023-02-26T01:49:39.331Z,88.60
2023-02-26T01:52:08.645Z,88.65
2023-02-26T01:54:38.466Z,89.33
2023-02-26T01:57:09.428Z,89.46
2023-02-26T01:59:42.302Z,89.59
2023-02-26T02:02:13.296Z,89.74
2023-02-26T02:04:42.406Z,89.93
2023-02-26T02:07:10.965Z,90.04
2023-02-26T02:09:39.105Z,90.46
2023-02-26T02:12:23.386Z,90.50
2023-02-26T02:15:05.014Z,90.64
2023-02-26T02:17:46.197Z,90.52
2023-02-26T02:20:53.578Z,90.45
2023-02-26T02:23:29.704Z,90.76
2023-02-26T02:26:36.420Z,90.61
2023-02-26T02:29:22.974Z,90.63
2023-02-26T02:31:57.006Z,90.32
2023-02-26T02:34:30.940Z,90.59
2023-02-26T02:37:02.733Z,90.43
2023-02-26T02:39:35.691Z,90.39
2023-02-26T02:42:09.267Z,90.20
2023-02-26T02:44:42.308Z,90.29
2023-02-26T02:47:13.918Z,90.10
2023-02-26T02:49:46.867Z,90.07
2023-02-26T02:52:20.589Z,90.04
2023-02-26T02:54:52.569Z,90.10
2023-02-26T02:57:24.249Z,89.73
2023-02-26T02:59:58.644Z,89.87
2023-02-26T03:02:31.981Z,89.41
2023-02-26T03:05:00.149Z,89.15
2023-02-26T03:07:28.205Z,89.44
2023-02-26T03:09:56.335Z,89.69
2023-02-26T03:12:27.125Z,89.43
2023-02-26T03:14:55.061Z,89.18
2023-02-26T03:17:33.709Z,88.92
2023-02-26T03:20:11.388Z,88.96
2023-02-26T03:22:46.766Z,88.87
2023-02-26T03:25:20.033Z,88.87
2023-02-26T03:27:53.672Z,88.97
2023-02-26T03:30:27.631Z,88.87
2023-02-26T03:33:04.271Z,89.02
2023-02-26T03:35:39.979Z,89.28
2023-02-26T03:38:12.141Z,88.95
2023-02-26T03:40:44.758Z,89.00
2023-02-26T03:43:19.244Z,89.16
2023-02-26T03:45:50.620Z,89.08
2023-02-26T03:48:25.326Z,88.96
2023-02-26T03:50:56.630Z,88.94
2023-02-26T03:53:28.214Z,88.90
2023-02-26T03:56:03.098Z,89.13
2023-02-26T03:58:31.372Z,88.90
2023-02-26T04:01:04.403Z,89.47
2023-02-26T04:03:40.283Z,89.11
2023-02-26T04:06:08.895Z,89.47
2023-02-26T04:08:37.312Z,89.00
2023-02-26T04:11:09.473Z,89.51
2023-02-26T04:13:37.292Z,89.12
2023-02-26T04:16:05.914Z,89.52
2023-02-26T04:18:35.272Z,88.95
2023-02-26T04:21:03.173Z,89.55
2023-02-26T04:23:31.339Z,88.98
2023-02-26T04:25:59.307Z,89.30
2023-02-26T04:28:27.132Z,89.44
2023-02-26T04:30:55.134Z,89.33
2023-02-26T04:33:23.375Z,89.25
2023-02-26T04:35:52.564Z,88.98
2023-02-26T04:38:20.549Z,89.08
2023-02-26T04:40:48.614Z,89.07
2023-02-26T04:43:16.450Z,89.47
2023-02-26T04:45:46.683Z,89.36
2023-02-26T04:48:14.928Z,89.45
2023-02-26T04:50:43.120Z,89.27
2023-02-26T04:53:12.376Z,89.33
2023-02-26T04:55:41.551Z,89.59
2023-02-26T04:58:10.108Z,89.39
2023-02-26T05:00:38.242Z,89.80
2023-02-26T05:03:06.243Z,89.54
2023-02-26T05:05:34.336Z,89.50
2023-02-26T05:08:02.280Z,89.55
2023-02-26T05:10:31.592Z,89.76
2023-02-26T05:12:59.474Z,89.55
2023-02-26T05:15:27.466Z,89.18
2023-02-26T05:17:55.417Z,89.65
2023-02-26T05:20:23.439Z,89.45
2023-02-26T05:22:51.443Z,89.29
2023-02-26T05:25:19.686Z,89.64
2023-02-26T05:27:49.106Z,89.57
2023-02-26T05:30:18.215Z,89.25
2023-02-26T05:32:46.213Z,89.26
2023-02-26T05:35:14.219Z,89.48
2023-02-26T05:37:42.217Z,89.28
2023-02-26T05:40:11.972Z,89.36
2023-02-26T05:42:40.292Z,89.71
2023-02-26T05:45:11.093Z,89.75
2023-02-26T05:47:39.552Z,89.23
2023-02-26T05:50:08.658Z,89.08
2023-02-26T05:52:36.570Z,89.57
2023-02-26T05:55:04.956Z,89.27
2023-02-26T05:57:32.790Z,88.90
2023-02-26T06:00:00.830Z,89.55
2023-02-26T06:02:30.161Z,89.29
2023-02-26T06:04:58.014Z,89.48
2023-02-26T06:07:25.950Z,89.50
2023-02-26T06:09:54.083Z,89.38
2023-02-26T06:12:22.046Z,89.08
2023-02-26T06:14:49.994Z,89.04
2023-02-26T06:17:17.936Z,89.02
2023-02-26T06:19:47.124Z,88.84
2023-02-26T06:22:15.109Z,88.56
2023-02-26T06:24:43.131Z,88.61
2023-02-26T06:27:11.018Z,88.85
2023-02-26T06:29:39.243Z,88.75
2023-02-26T06:32:07.839Z,88.44
2023-02-26T06:34:35.784Z,88.20
2023-02-26T06:37:05.192Z,88.62
2023-02-26T06:39:33.850Z,88.62
2023-02-26T06:42:01.702Z,88.77
2023-02-26T06:44:29.644Z,88.70
2023-02-26T06:46:57.634Z,88.51
2023-02-26T06:49:25.499Z,88.43
2023-02-26T06:51:53.402Z,89.03
2023-02-26T06:54:22.734Z,88.49
2023-02-26T06:56:50.627Z,89.02
2023-02-26T06:59:18.571Z,89.16
2023-02-26T07:01:46.589Z,89.25
2023-02-26T07:04:14.396Z,89.38
2023-02-26T07:06:42.655Z,89.59
2023-02-26T07:09:10.771Z,89.74
2023-02-26T07:11:40.070Z,89.58
2023-02-26T07:14:07.983Z,89.52
2023-02-26T07:16:36.007Z,88.97
2023-02-26T07:19:03.852Z,88.75
2023-02-26T07:21:31.931Z,88.88
2023-02-26T07:23:59.876Z,90.15
2023-02-26T07:26:28.049Z,92.91
2023-02-26T07:28:57.575Z,94.75
2023-02-26T07:31:25.666Z,95.85
2023-02-26T07:33:53.645Z,96.87
2023-02-26T07:36:21.707Z,97.51
2023-02-26T07:38:49.633Z,95.78
2023-02-26T07:41:17.485Z,92.69
2023-02-26T07:43:45.391Z,90.62
2023-02-26T07:46:14.895Z,88.97
2023-02-26T07:48:42.777Z,88.06
2023-02-26T07:51:11.195Z,86.59
2023-02-26T07:53:39.254Z,86.02
2023-02-26T07:56:07.112Z,85.85
2023-02-26T07:58:35.012Z,86.47
2023-02-26T08:01:03.038Z,85.18
2023-02-26T08:03:32.604Z,84.44
2023-02-26T08:06:00.979Z,84.63
2023-02-26T08:08:29.172Z,84.30
2023-02-26T08:10:57.045Z,84.75
2023-02-26T08:13:24.986Z,84.62
2023-02-26T08:15:53.039Z,84.16
2023-02-26T08:18:21.027Z,84.01
2023-02-26T08:20:52.154Z,84.65
2023-02-26T08:23:20.127Z,84.01
2023-02-26T08:25:49.010Z,83.95
2023-02-26T08:28:17.225Z,84.16
2023-02-26T08:30:45.214Z,83.90
2023-02-26T08:33:13.047Z,84.03
2023-02-26T08:35:40.968Z,84.06
2023-02-26T08:38:10.345Z,83.95
2023-02-26T08:40:38.185Z,84.08
2023-02-26T08:43:06.131Z,83.89
2023-02-26T08:45:34.057Z,85.92
2023-02-26T08:48:01.925Z,86.76
2023-02-26T08:50:29.953Z,85.65
2023-02-26T08:52:58.239Z,84.25
2023-02-26T08:55:27.513Z,83.57
2023-02-26T08:57:55.494Z,83.02
2023-02-26T09:00:23.965Z,83.24
2023-02-26T09:02:52.093Z,83.14
2023-02-26T09:05:20.463Z,83.32
2023-02-26T09:07:48.488Z,83.48
2023-02-26T09:10:16.877Z,82.77
2023-02-26T09:12:46.813Z,82.25
2023-02-26T09:15:15.745Z,82.78
2023-02-26T09:17:44.095Z,82.25
2023-02-26T09:20:13.772Z,81.86
2023-02-26T09:22:41.724Z,82.25
2023-02-26T09:25:10.427Z,81.50
2023-02-26T09:27:38.500Z,81.20
2023-02-26T09:30:09.169Z,81.85
2023-02-26T09:32:38.081Z,81.79
2023-02-26T09:35:06.611Z,81.53
2023-02-26T09:37:35.105Z,80.77
2023-02-26T09:40:03.405Z,81.32
2023-02-26T09:42:45.923Z,81.05
2023-02-26T09:45:26.818Z,81.22
2023-02-26T09:47:56.418Z,80.76
2023-02-26T09:50:27.301Z,81.29
2023-02-26T09:53:02.855Z,80.50
2023-02-26T09:55:35.410Z,80.98
2023-02-26T09:58:06.268Z,81.23
2023-02-26T10:00:39.581Z,81.31
2023-02-26T10:03:22.901Z,82.59
2023-02-26T10:06:10.504Z,81.91
2023-02-26T10:08:48.383Z,81.54
2023-02-26T10:11:28.540Z,81.49
2023-02-26T10:14:01.836Z,81.00
2023-02-26T10:16:36.447Z,80.47
2023-02-26T10:19:07.592Z,80.33
2023-02-26T10:21:40.631Z,81.92
2023-02-26T10:24:15.312Z,81.80
2023-02-26T10:26:51.267Z,81.54
2023-02-26T10:29:25.409Z,80.54
2023-02-26T10:32:19.322Z,78.48
2023-02-26T10:34:53.009Z,77.71
2023-02-26T10:37:25.351Z,75.81
2023-02-26T10:39:57.318Z,74.88
2023-02-26T10:42:29.723Z,73.37
2023-02-26T10:45:12.739Z,71.78
2023-02-26T10:47:50.973Z,71.83
2023-02-26T10:50:22.148Z,72.05
2023-02-26T10:52:52.588Z,71.86
2023-02-26T10:55:32.675Z,71.07
2023-02-26T10:58:06.155Z,69.86
2023-02-26T11:00:36.474Z,70.02
2023-02-26T11:03:08.435Z,70.23
2023-02-26T11:05:36.560Z,70.62
2023-02-26T11:08:11.987Z,70.49
2023-02-26T11:10:48.729Z,70.95
2023-02-26T11:13:16.672Z,70.71
2023-02-26T11:15:50.251Z,70.91
2023-02-26T11:18:23.220Z,70.89
2023-02-26T11:20:54.249Z,71.01
2023-02-26T11:23:25.929Z,71.57
2023-02-26T11:26:02.397Z,71.57
2023-02-26T11:28:36.067Z,71.65
2023-02-26T11:31:08.001Z,71.62
2023-02-26T11:33:40.217Z,71.52
2023-02-26T11:36:12.832Z,71.28
2023-02-26T11:38:41.791Z,71.21
2023-02-26T11:41:10.492Z,71.10
2023-02-26T11:43:44.877Z,71.45
2023-02-26T11:46:14.406Z,71.48
2023-02-26T11:48:47.460Z,71.85
2023-02-26T11:51:19.948Z,71.46
2023-02-26T11:53:52.340Z,71.52
2023-02-26T11:56:28.411Z,71.16
2023-02-26T11:58:56.987Z,71.19
2023-02-26T12:01:29.351Z,71.11
2023-02-26T12:04:03.229Z,71.49
2023-02-26T12:06:31.517Z,71.00
2023-02-26T12:09:00.200Z,70.92
2023-02-26T12:11:46.476Z,71.55
2023-02-26T12:14:30.516Z,71.27
2023-02-26T12:17:11.840Z,71.39
2023-02-26T12:19:50.228Z,71.06
2023-02-26T12:22:37.474Z,70.44
2023-02-26T12:25:23.627Z,70.74
2023-02-26T12:28:10.173Z,71.02
2023-02-26T12:31:05.285Z,71.08
2023-02-26T12:33:45.075Z,71.58
2023-02-26T12:36:36.364Z,71.42
2023-02-26T12:39:30.930Z,71.30
2023-02-26T12:42:12.014Z,71.97
2023-02-26T12:45:01.487Z,70.66
2023-02-26T12:47:39.365Z,70.91
2023-02-26T12:50:20.060Z,70.58
2023-02-26T12:53:11.369Z,70.39
2023-02-26T12:55:53.526Z,70.43
2023-02-26T12:58:55.660Z,70.68
2023-02-26T13:01:59.537Z,70.56
2023-02-26T13:05:01.622Z,71.28
2023-02-26T13:07:54.295Z,71.18
2023-02-26T13:10:31.988Z,71.15
2023-02-26T13:13:15.499Z,71.45
2023-02-26T13:15:55.506Z,70.96
2023-02-26T13:18:30.487Z,71.38
2023-02-26T13:21:02.484Z,71.72
2023-02-26T13:23:38.666Z,72.38
2023-02-26T13:26:10.803Z,72.26
2023-02-26T13:28:43.814Z,72.56
2023-02-26T13:31:17.141Z,72.00
2023-02-26T13:33:46.605Z,71.72
2023-02-26T13:36:16.922Z,71.78
2023-02-26T13:39:04.922Z,72.15
2023-02-26T13:41:45.685Z,72.42
2023-02-26T13:44:26.364Z,72.18
2023-02-26T13:47:17.082Z,72.25
2023-02-26T13:49:57.345Z,72.03
2023-02-26T13:52:27.502Z,72.02
2023-02-26T13:54:59.511Z,71.80
2023-02-26T13:57:44.853Z,71.72
2023-02-26T14:00:28.405Z,71.82
2023-02-26T14:02:58.854Z,72.38
2023-02-26T14:05:36.973Z,72.66
2023-02-26T14:08:24.045Z,72.51
2023-02-26T14:11:00.085Z,72.56
2023-02-26T14:13:36.229Z,72.29
2023-02-26T14:16:13.282Z,72.87
2023-02-26T14:18:51.366Z,72.62
2023-02-26T14:21:39.443Z,72.81
2023-02-26T14:24:16.602Z,72.97
2023-02-26T14:26:49.331Z,73.27
2023-02-26T14:29:22.832Z,73.22
2023-02-26T14:32:14.162Z,73.58
2023-02-26T14:34:50.301Z,73.62
2023-02-26T14:37:22.991Z,73.48
2023-02-26T14:39:56.415Z,74.27
2023-02-26T14:42:35.595Z,74.26
2023-02-26T14:45:15.323Z,74.44
2023-02-26T14:47:44.839Z,74.54
2023-02-26T14:50:16.429Z,74.38
2023-02-26T14:53:08.733Z,74.16
2023-02-26T14:55:55.277Z,74.68
2023-02-26T14:58:47.356Z,74.94
2023-02-26T15:01:29.312Z,74.79
2023-02-26T15:04:15.223Z,74.76
2023-02-26T15:07:07.450Z,75.49
2023-02-26T15:09:49.468Z,75.14
2023-02-26T15:12:31.012Z,75.13
2023-02-26T15:15:20.426Z,75.72
2023-02-26T15:18:04.749Z,75.66
2023-02-26T15:20:41.927Z,75.29
2023-02-26T15:23:26.095Z,75.97
2023-02-26T15:25:57.370Z,75.32
2023-02-26T15:28:30.204Z,75.61
2023-02-26T15:31:02.312Z,75.72
2023-02-26T15:33:30.426Z,75.74
2023-02-26T15:35:59.919Z,75.94
2023-02-26T15:38:28.487Z,75.91
2023-02-26T15:41:05.381Z,75.46
2023-02-26T15:43:33.437Z,75.64
2023-02-26T15:46:03.705Z,75.23
2023-02-26T15:48:37.580Z,75.34
2023-02-26T15:51:08.200Z,75.33
2023-02-26T15:53:41.186Z,75.49
2023-02-26T15:56:13.023Z,75.36
2023-02-26T15:58:46.238Z,75.34
2023-02-26T16:01:19.265Z,75.84
2023-02-26T16:03:50.955Z,75.51
2023-02-26T16:06:21.599Z,75.85
2023-02-26T16:08:49.524Z,75.47
2023-02-26T16:11:18.828Z,75.54
2023-02-26T16:13:49.417Z,75.93
2023-02-26T16:16:23.644Z,75.81
2023-02-26T16:18:53.058Z,76.64
2023-02-26T16:21:29.023Z,76.69
2023-02-26T16:23:59.002Z,76.40
2023-02-26T16:26:31.431Z,76.79
2023-02-26T16:29:03.011Z,76.90
2023-02-26T16:31:37.219Z,76.59
2023-02-26T16:34:08.828Z,76.90
2023-02-26T16:36:41.448Z,76.95
2023-02-26T16:39:18.255Z,76.95
2023-02-26T16:41:49.766Z,77.39
2023-02-26T16:44:40.867Z,77.91
2023-02-26T16:47:11.901Z,77.49
2023-02-26T16:49:42.749Z,77.97
2023-02-26T16:52:18.058Z,77.56
2023-02-26T16:54:56.057Z,77.92
2023-02-26T16:57:30.426Z,78.16
2023-02-26T17:00:04.964Z,78.25
2023-02-26T17:02:38.055Z,78.39
2023-02-26T17:05:15.879Z,78.57
2023-02-26T17:07:49.364Z,78.80
2023-02-26T17:10:22.752Z,78.33
2023-02-26T17:12:52.973Z,78.88
2023-02-26T17:15:27.990Z,78.89
2023-02-26T17:17:58.306Z,79.01
2023-02-26T17:20:27.714Z,78.91
2023-02-26T17:22:56.414Z,79.27
2023-02-26T17:25:25.430Z,79.28
2023-02-26T17:27:53.880Z,79.41
2023-02-26T17:30:25.684Z,79.59
2023-02-26T17:32:53.723Z,79.48
2023-02-26T17:35:22.939Z,79.89
2023-02-26T17:37:52.245Z,79.49
2023-02-26T17:40:23.016Z,79.75
2023-02-26T17:42:52.044Z,80.09
2023-02-26T17:45:21.200Z,80.05
2023-02-26T17:47:50.267Z,80.36
2023-02-26T17:50:36.629Z,80.36
2023-02-26T17:53:06.375Z,80.44
2023-02-26T17:55:35.736Z,80.29
2023-02-26T17:58:04.137Z,80.29
2023-02-26T18:00:33.607Z,80.57
2023-02-26T18:03:01.473Z,80.74
2023-02-26T18:05:32.880Z,80.70
2023-02-26T18:08:01.092Z,80.69
2023-02-26T18:10:28.862Z,80.94
2023-02-26T18:12:56.733Z,80.81
2023-02-26T18:15:25.599Z,81.02
2023-02-26T18:17:53.506Z,81.25
2023-02-26T18:20:23.455Z,81.45
2023-02-26T18:22:52.881Z,81.25
2023-02-26T18:25:20.737Z,81.33
2023-02-26T18:27:54.702Z,81.56
2023-02-26T18:30:25.228Z,81.40
2023-02-26T18:32:53.188Z,81.52
2023-02-26T18:35:21.230Z,81.48
2023-02-26T18:37:50.346Z,81.81
2023-02-26T18:40:22.845Z,81.55
2023-02-26T18:42:51.678Z,81.81
2023-02-26T18:45:20.704Z,81.98
2023-02-26T18:47:49.552Z,81.78
2023-02-26T18:50:18.955Z,81.80
2023-02-26T18:52:46.857Z,81.69
2023-02-26T18:55:15.787Z,81.91
2023-02-26T18:57:45.224Z,82.05
2023-02-26T19:00:15.490Z,82.04
2023-02-26T19:02:45.589Z,82.28
2023-02-26T19:05:14.598Z,82.18
2023-02-26T19:07:42.822Z,82.26
2023-02-26T19:10:14.765Z,82.39
2023-02-26T19:12:44.919Z,82.65
2023-02-26T19:15:14.308Z,82.29
2023-02-26T19:17:43.104Z,82.61
2023-02-26T19:20:12.620Z,82.64
2023-02-26T19:22:42.030Z,82.69
2023-02-26T19:25:10.711Z,82.85
2023-02-26T19:27:39.661Z,82.83
2023-02-26T19:30:10.682Z,82.82
2023-02-26T19:32:38.739Z,83.23
2023-02-26T19:35:08.237Z,82.89
2023-02-26T19:37:36.260Z,82.98
2023-02-26T19:40:08.783Z,83.01
2023-02-26T19:42:36.914Z,83.00
2023-02-26T19:45:05.852Z,82.97
2023-02-26T19:47:35.305Z,83.16
2023-02-26T19:50:03.460Z,83.31
2023-02-26T19:52:31.850Z,83.38
2023-02-26T19:54:59.919Z,83.45
2023-02-26T19:57:28.807Z,83.19
2023-02-26T19:59:57.008Z,83.28
2023-02-26T20:02:25.034Z,83.29
2023-02-26T20:04:55.124Z,83.58
2023-02-26T20:07:23.082Z,83.78
2023-02-26T20:09:51.082Z,83.68
2023-02-26T20:12:19.106Z,83.77
2023-02-26T20:14:46.919Z,83.84
2023-02-26T20:17:14.935Z,83.94
2023-02-26T20:19:44.510Z,83.97
2023-02-26T20:22:13.880Z,83.89
2023-02-26T20:24:41.820Z,84.29
2023-02-26T20:27:09.755Z,84.20
2023-02-26T20:29:37.593Z,84.25
2023-02-26T20:32:06.351Z,84.08
2023-02-26T20:34:34.364Z,84.58
2023-02-26T20:37:02.176Z,84.45
2023-02-26T20:39:31.719Z,84.50
2023-02-26T20:41:59.714Z,84.50
2023-02-26T20:44:27.623Z,84.66
2023-02-26T20:46:55.603Z,84.68
2023-02-26T20:49:24.817Z,84.76
2023-02-26T20:51:52.614Z,85.04
2023-02-26T20:54:22.261Z,84.83
2023-02-26T20:56:51.874Z,84.92
2023-02-26T20:59:20.338Z,84.92
2023-02-26T21:01:51.393Z,84.77
2023-02-26T21:04:19.840Z,84.98
2023-02-26T21:06:47.816Z,85.03
2023-02-26T21:09:15.858Z,85.03
2023-02-26T21:11:44.009Z,85.50
2023-02-26T21:14:13.373Z,85.15
2023-02-26T21:16:41.964Z,85.15
2023-02-26T21:19:09.860Z,85.40
2023-02-26T21:21:37.715Z,85.37
2023-02-26T21:24:06.217Z,85.10
2023-02-26T21:26:35.257Z,85.44
2023-02-26T21:29:04.955Z,85.37
2023-02-26T21:31:34.992Z,85.44
2023-02-26T21:34:29.960Z,85.70
2023-02-26T21:36:51.256Z,85.44
2023-02-26T21:39:19.172Z,85.73
2023-02-26T21:41:47.001Z,85.47
2023-02-26T21:44:14.998Z,85.79
2023-02-26T21:46:44.369Z,85.54
2023-02-26T21:49:12.191Z,85.79
2023-02-26T21:51:40.010Z,86.00
2023-02-26T21:54:08.148Z,85.81
2023-02-26T21:56:35.987Z,85.86
2023-02-26T21:59:03.894Z,86.15
2023-02-26T22:01:31.934Z,86.22
2023-02-26T22:04:01.156Z,86.18
2023-02-26T22:06:29.221Z,86.15
2023-02-26T22:08:57.307Z,86.31
2023-02-26T22:11:25.372Z,86.26
2023-02-26T22:13:53.442Z,86.58
2023-02-26T22:16:21.572Z,86.65
2023-02-26T22:18:49.483Z,86.55
2023-02-26T22:21:18.860Z,86.66
2023-02-26T22:23:46.915Z,86.81
2023-02-26T22:26:14.904Z,86.87
2023-02-26T22:28:42.837Z,86.65
2023-02-26T22:31:11.491Z,86.73
2023-02-26T22:33:39.607Z,87.02
2023-02-26T22:36:08.470Z,86.91
2023-02-26T22:38:38.026Z,87.35
2023-02-26T22:41:06.161Z,87.31
2023-02-26T22:43:34.125Z,87.60
2023-02-26T22:46:02.663Z,87.66
2023-02-26T22:48:30.478Z,87.55
2023-02-26T22:50:58.463Z,87.26
2023-02-26T22:53:26.496Z,87.71
2023-02-26T22:55:55.732Z,87.79
2023-02-26T22:58:23.592Z,88.14
2023-02-26T23:00:52.917Z,88.02
2023-02-26T23:03:20.781Z,88.25
2023-02-26T23:05:48.705Z,88.16
2023-02-26T23:08:16.726Z,88.36
2023-02-26T23:10:46.256Z,88.52
2023-02-26T23:13:15.996Z,88.13
2023-02-26T23:15:44.006Z,88.70
2023-02-26T23:18:11.834Z,88.62
2023-02-26T23:20:39.950Z,88.94
2023-02-26T23:23:08.128Z,88.92
2023-02-26T23:25:35.999Z,88.92
2023-02-26T23:28:03.899Z,89.15
2023-02-26T23:30:34.241Z,88.89
2023-02-26T23:33:02.380Z,89.31
2023-02-26T23:35:30.219Z,89.47
2023-02-26T23:37:58.377Z,89.31
2023-02-26T23:40:26.363Z,89.16
2023-02-26T23:42:54.267Z,89.39
2023-02-26T23:45:22.272Z,89.39
2023-02-26T23:47:51.831Z,89.61
2023-02-26T23:50:20.681Z,89.57
2023-02-26T23:52:48.691Z,90.01
2023-02-26T23:55:16.685Z,90.19
2023-02-26T23:57:44.990Z,90.25
